ADDS METAR Data INFO
IDs: Format: Raw Decoded Include TAF

Data at: 1121 UTC 17 Aug 2017

Region: TOP
KATL 171052Z 28006KT 10SM FEW030 FEW250 25/23 A3008 RMK AO2 SLP174 T02500228

KBOS 171054Z 28005KT 10SM FEW200 BKN300 19/09 A3006 RMK A02 SLP178 T01890089

KBWI 171114Z 00000KT 3SM BR FEW004 SCT010 SCT100 22/22 A3003 RMK AO2 T02170217

KCLE 171051Z 16008KT 10SM FEW100 BKN150 BKN250 23/17 A2997 RMK AO2 SLP142 T02280172

KCLT 171052Z 00000KT 10SM FEW150 SCT250 24/24 A3005 RMK AO2 SLP164 T02390239

KCVG 171052Z 19007KT 10SM FEW085 23/23 A2996 RMK AO2 SLP132 T02330228

KDCA 171052Z 12003KT 8SM SCT060 SCT250 25/24 A3002 RMK AO2 SLP164 T02500239

KDEN 171053Z 21013KT 10SM FEW120 BKN180 16/08 A3014 RMK AO2 SLP135 T01560083

KDFW 171053Z COR 04022G30KT 4SM TSRA BR FEW012 BKN018CB BKN032 OVC140 24/22 A2996 RMK AO2 LTG DSNT ALQDS SLP136 PK WND 0333/1039 WSHFT 21 CONS LTGICCCCG W-N-NE TSB53 TS W-N-NE MOV E P0000 T02390217

KDTW 171118Z 23006KT 3/4SM R03R/3000VP6000FT +RA BR BKN008 OVC035 22/21 A2992 RMK AO2 LTG DSNT SE AND S P0023 T02220211

KEWR 171051Z 02007KT 10SM FEW060 BKN080 BKN250 20/14 A3005 RMK AO2 SLP176 T02000144

KFLL 171053Z 00000KT 10SM FEW023 FEW140 FEW180 BKN250 28/23 A3006 RMK AO2 SLP178 T02780228

KIAD 171052Z 00000KT 5SM BR SCT060 SCT120 21/21 A3003 RMK AO2 SLP165 T02110211

KIAH 171053Z 20006KT 10SM FEW025 SCT250 28/25 A3001 RMK AO2 SLP160 T02830250

KJFK 171051Z 01006KT 10SM BKN080 BKN330 21/16 A3006 RMK AO2 SLP179 T02110156

KLAS 171056Z 20003KT 10SM CLR 27/05 A2994 RMK AO2 SLP108 T02670050

KLAX 171053Z 19003KT 10SM CLR 19/16 A2997 RMK AO2 SLP145 T01890161

KLGA 171051Z 03007KT 10SM BKN075 22/14 A3005 RMK AO2 SLP176 T02170139

KMCO 171053Z 18003KT 10SM FEW024 FEW090 FEW250 23/23 A3009 RMK AO2 SLP188 CB DSNT N T02330233

KMDW 171115Z 20012KT 2 1/2SM +RA BR SCT012 BKN040 OVC070 23/21 A2978 RMK AO2 RAB04 P0007 T02280211

KMEM 171054Z 23009G17KT 9SM OVC008 25/24 A2998 RMK AO2 SLP146 T02500239

KMIA 171053Z 35003KT 10SM FEW027 SCT250 BKN300 29/24 A3006 RMK AO2 RAB22E37 SLP180 CB DSNT NE MOV W P0000 T02940239

KMSP 171106Z 04006KT 10SM FEW008 BKN018 OVC030 19/18 A2948 RMK AO2 RAE1054 P0000 T01940178

KORD 171051Z 21011KT 10SM FEW017 SCT030 OVC090 24/20 A2977 RMK AO2 RAB08E19 SLP077 P0000 T02390200

KPDX 171053Z 34005KT 10SM BKN028 17/13 A3014 RMK AO2 SLP203 T01720133

KPHL 171054Z 06004KT 10SM SCT075 SCT280 21/17 A3005 RMK AO2 SLP174 T02110172 $

KPHX 171051Z 10006KT 10SM CLR 27/08 A2987 RMK AO2 SLP095 T02720083 $

KPIT 171051Z 00000KT 10SM OVC250 18/17 A3002 RMK AO2 SLP164 T01830172

KSAN 171051Z 06003KT 10SM BKN015 19/15 A2999 RMK AO2 SLP154 T01940150

KSEA 171053Z 21006KT 10SM OVC017 16/13 A3014 RMK AO2 SLP211 T01610133

KSFO 171056Z 18003KT 10SM FEW015 16/13 A2997 RMK AO2 SLP149 T01610128

KSLC 171054Z 15009KT 10SM FEW080 SCT150 21/05 A3006 RMK AO2 SLP120 T02110050

KSTL 171051Z 25007KT 10SM FEW009 SCT100 SCT150 BKN250 21/20 A2989 RMK AO2 SLP114 T02060200

KTPA 171053Z 00000KT 10SM SCT250 28/24 A3009 RMK AO2 SLP187 CB DSNT NW TCU DSNT S T02830239